Time;durP1;ratioP1;P1;durP2;ratioP2;P2;SDS_P1;SDS_P2;PMS_P1;PMS_P2;Temp;Humidity;BMP_temperature;BMP_pressure;BME280_temperature;BME280_humidity;BME280_pressure;Samples;Min_cycle;Max_cycle;Signal;HPM_P1;HPM_P2
2022/01/22 00:02:21;;;;;;;14.10;6.20;;;;;;;-2.92;66.35;99846.94;107582;1271;138823;-69
2022/01/22 00:04:49;;;;;;;14.50;6.40;;;;;;;-2.96;66.66;99857.44;107593;1271;108190;-69
2022/01/22 00:07:18;;;;;;;13.10;6.30;;;;;;;-3.00;66.74;99857.21;107563;1273;139391;-68
2022/01/22 00:09:52;;;;;;;12.70;5.90;;;;;;;-3.04;66.94;99849.33;107603;1273;97000;-69
2022/01/22 00:12:41;;;;;;;13.50;6.10;;;;;;;-3.07;67.23;99849.42;107625;1273;111542;-69
2022/01/22 00:15:12;;;;;;;13.80;6.20;;;;;;;-3.10;67.66;99852.96;107532;1273;138411;-68
2022/01/22 00:17:41;;;;;;;12.30;5.60;;;;;;;-3.13;67.85;99854.61;107525;1273;107153;-68
2022/01/22 00:20:12;;;;;;;12.80;5.70;;;;;;;-3.15;67.96;99847.45;107581;1273;139263;-68
2022/01/22 00:22:42;;;;;;;11.90;5.40;;;;;;;-3.17;68.31;99847.08;107689;1271;96452;-68
2022/01/22 00:25:13;;;;;;;11.10;5.70;;;;;;;-3.18;68.65;99849.09;107584;1273;138554;-68
2022/01/22 00:27:44;;;;;;;17.60;5.60;;;;;;;-3.18;68.69;99848.59;107569;1273;108197;-67
2022/01/22 00:30:17;;;;;;;10.60;5.50;;;;;;;-3.19;68.74;99846.52;107510;1273;106768;-67
2022/01/22 00:32:46;;;;;;;8.70;4.80;;;;;;;-3.21;69.55;99851.44;107554;1271;138886;-68
2022/01/22 00:35:15;;;;;;;14.70;5.30;;;;;;;-3.20;69.43;99851.63;107714;1272;96164;-68
2022/01/22 00:37:45;;;;;;;13.10;5.10;;;;;;;-3.21;69.53;99853.30;107608;1271;138809;-68
2022/01/22 00:40:15;;;;;;;13.10;5.50;;;;;;;-3.24;69.76;99847.79;107690;1273;109069;-68
2022/01/22 00:42:45;;;;;;;10.40;5.40;;;;;;;-3.25;69.91;99851.84;107328;1273;109076;-68
2022/01/22 00:45:15;;;;;;;12.70;5.30;;;;;;;-3.26;70.52;99848.61;106206;1273;139544;-67
2022/01/22 00:47:44;;;;;;;12.40;5.40;;;;;;;-3.26;70.18;99849.45;106091;1271;97934;-68
2022/01/22 00:50:15;;;;;;;10.30;5.20;;;;;;;-3.27;70.32;99849.25;106066;1273;139394;-69
2022/01/22 00:52:45;;;;;;;11.00;5.70;;;;;;;-3.29;70.66;99849.58;106127;1273;107873;-68
2022/01/22 00:55:14;;;;;;;10.70;5.50;;;;;;;-3.30;70.96;99849.04;107202;1273;139661;-70
2022/01/22 00:57:43;;;;;;;11.20;6.00;;;;;;;-3.33;71.04;99856.48;107667;1273;96150;-69
2022/01/22 01:00:16;;;;;;;10.40;6.00;;;;;;;-3.35;70.91;99861.21;106810;1273;97656;-68
2022/01/22 01:02:46;;;;;;;12.40;5.90;;;;;;;-3.35;71.20;99856.45;105880;1273;138385;-68
2022/01/22 01:05:15;;;;;;;12.80;5.50;;;;;;;-3.39;71.38;99852.83;106014;1273;109964;-69
2022/01/22 01:07:44;;;;;;;11.20;5.80;;;;;;;-3.41;71.05;99857.02;105952;1274;140422;-68
2022/01/22 01:10:16;;;;;;;11.60;6.50;;;;;;;-3.41;71.68;99856.14;106058;1273;97814;-70
2022/01/22 01:12:46;;;;;;;11.70;6.20;;;;;;;-3.42;71.51;99852.06;106012;1271;97933;-68
2022/01/22 01:15:35;;;;;;;11.90;6.30;;;;;;;-3.43;71.49;99850.84;106168;1273;138343;-69
2022/01/22 01:32:10;;;;;;;13.00;6.60;;;;;;;-3.45;71.57;99848.95;107667;1273;108889;-69
2022/01/22 01:32:27;;;;;;;9.60;5.80;;;;;;;-3.53;72.63;99840.16;106436;1277;138717;-67
2022/01/22 01:34:57;;;;;;;12.10;6.10;;;;;;;-3.54;72.61;99834.53;107214;1278;108916;-68
2022/01/22 01:37:26;;;;;;;13.90;6.40;;;;;;;-3.55;72.65;99832.98;107112;1277;139701;-67
2022/01/22 01:40:00;;;;;;;13.30;6.00;;;;;;;-3.55;72.84;99838.42;106036;1279;98100;-69
2022/01/22 01:42:36;;;;;;;12.20;6.20;;;;;;;-3.55;72.97;99834.34;106208;1279;112905;-70
2022/01/22 01:45:07;;;;;;;12.80;6.80;;;;;;;-3.57;72.69;99837.70;107087;1277;140249;-69
2022/01/22 01:47:49;;;;;;;12.20;6.20;;;;;;;-3.58;73.00;99834.13;107088;1278;108907;-69
2022/01/22 01:50:18;;;;;;;17.10;6.30;;;;;;;-3.59;73.43;99833.58;107076;1278;139830;-67
2022/01/22 01:52:51;;;;;;;12.10;6.40;;;;;;;-3.59;73.15;99834.41;106833;1278;97839;-67
2022/01/22 01:55:34;;;;;;;9.80;5.50;;;;;;;-3.59;73.19;99830.19;107102;1278;140464;-67
2022/01/22 01:58:11;;;;;;;12.70;6.00;;;;;;;-3.61;73.37;99840.67;107319;1277;107987;-67
2022/01/22 02:00:41;;;;;;;12.80;5.80;;;;;;;-3.62;73.34;99842.52;106374;1277;109216;-67
2022/01/22 02:03:12;;;;;;;15.20;6.10;;;;;;;-3.62;73.29;99844.89;105752;1279;138667;-66
2022/01/22 02:05:41;;;;;;;10.20;6.00;;;;;;;-3.61;73.44;99844.58;105879;1276;97948;-68
2022/01/22 02:08:12;;;;;;;11.00;6.20;;;;;;;-3.58;73.79;99844.80;106790;1277;139143;-68
2022/01/22 02:10:56;;;;;;;12.80;5.80;;;;;;;-3.58;73.51;99839.21;107499;1274;109084;-68
2022/01/22 02:14:00;;;;;;;10.20;5.80;;;;;;;-3.56;73.57;99838.58;106339;1273;139022;-68
2022/01/22 02:25:14;;;;;;;13.80;5.50;;;;;;;-3.53;73.83;99833.36;105926;1279;107924;-67
2022/01/22 02:27:43;;;;;;;12.90;5.50;;;;;;;-3.51;73.88;99827.27;106811;1277;138606;-68
2022/01/22 02:30:20;;;;;;;13.30;5.30;;;;;;;-3.48;74.08;99826.29;105714;1279;98191;-68
2022/01/22 02:33:26;;;;;;;12.40;5.40;;;;;;;-3.46;73.81;99822.24;105837;1280;138608;-67
2022/01/22 02:36:00;;;;;;;13.20;5.20;;;;;;;-3.44;73.85;99819.05;106240;1278;111368;-68
2022/01/22 02:38:36;;;;;;;13.10;5.00;;;;;;;-3.44;73.60;99818.88;106222;1279;139791;-68
2022/01/22 02:41:06;;;;;;;11.90;5.40;;;;;;;-3.45;73.57;99815.80;107056;1278;109045;-68
2022/01/22 02:43:34;;;;;;;12.90;5.10;;;;;;;-3.46;73.60;99819.54;106959;1278;139829;-68
2022/01/22 02:46:03;;;;;;;10.70;4.80;;;;;;;-3.47;73.79;99818.48;106196;1277;97961;-68
2022/01/22 02:48:32;;;;;;;9.80;4.60;;;;;;;-3.49;73.86;99819.15;105807;1278;112410;-68
2022/01/22 02:51:01;;;;;;;14.80;5.30;;;;;;;-3.48;73.71;99820.86;106240;1278;139536;-67
2022/01/22 02:53:29;;;;;;;9.30;4.80;;;;;;;-3.49;73.89;99820.84;107237;1277;108961;-68
2022/01/22 02:55:58;;;;;;;9.70;4.60;;;;;;;-3.49;73.98;99824.75;106478;1279;139004;-68
2022/01/22 02:58:27;;;;;;;8.00;4.30;;;;;;;-3.48;74.21;99822.22;107098;1277;96506;-67
2022/01/22 03:00:56;;;;;;;8.70;4.80;;;;;;;-3.48;74.06;99825.28;106791;1273;112406;-68
2022/01/22 03:03:25;;;;;;;9.10;3.80;;;;;;;-3.47;74.01;99821.89;106221;1274;139708;-68
2022/01/22 03:05:53;;;;;;;11.30;4.20;;;;;;;-3.47;73.88;99823.25;107176;1274;108949;-69
2022/01/22 03:08:27;;;;;;;9.40;4.40;;;;;;;-3.45;73.89;99826.85;107496;1273;138970;-68
2022/01/22 03:10:56;;;;;;;8.60;4.50;;;;;;;-3.44;73.92;99836.55;106342;1274;97879;-68
2022/01/22 03:16:25;;;;;;;10.10;4.60;;;;;;;-3.45;73.77;99830.25;106775;1281;108856;-68
2022/01/22 03:18:59;;;;;;;10.40;4.20;;;;;;;-3.46;73.95;99831.77;105797;1278;109024;-68
2022/01/22 03:21:40;;;;;;;9.40;4.00;;;;;;;-3.46;73.64;99832.79;106946;1280;138628;-68
2022/01/22 03:27:22;;;;;;;17.10;4.80;;;;;;;-3.44;73.59;99845.74;105697;1281;139048;-67
2022/01/22 03:29:51;;;;;;;9.10;4.50;;;;;;;-3.44;73.67;99845.39;105823;1281;109032;-68
2022/01/22 03:32:21;;;;;;;8.70;3.90;;;;;;;-3.44;73.60;99849.31;105854;1281;138506;-68
2022/01/22 03:34:58;;;;;;;8.40;4.10;;;;;;;-3.44;73.52;99845.73;105753;1281;98982;-68
2022/01/22 03:37:28;;;;;;;12.10;4.50;;;;;;;-3.44;73.64;99853.89;105746;1279;138849;-67
2022/01/22 03:39:57;;;;;;;9.30;4.20;;;;;;;-3.44;73.75;99847.44;106370;1281;111636;-67
2022/01/22 03:42:26;;;;;;;9.00;4.00;;;;;;;-3.44;73.36;99843.02;106110;1280;108983;-67
2022/01/22 03:44:55;;;;;;;11.70;4.10;;;;;;;-3.44;73.45;99843.36;106820;1278;138862;-68
2022/01/22 03:47:23;;;;;;;10.30;4.00;;;;;;;-3.45;73.30;99841.48;106773;1280;96928;-68
2022/01/22 03:49:52;;;;;;;8.00;3.80;;;;;;;-3.44;73.38;99844.72;106910;1281;139495;-66
2022/01/22 03:52:21;;;;;;;7.70;4.00;;;;;;;-3.42;73.34;99843.91;105793;1281;111479;-68
2022/01/22 03:54:49;;;;;;;14.90;3.80;;;;;;;-3.41;73.63;99853.80;106012;1274;110123;-69
2022/01/22 03:57:32;;;;;;;8.50;4.00;;;;;;;-3.39;73.30;99860.30;107277;1274;138448;-70
2022/01/22 04:00:01;;;;;;;8.00;3.40;;;;;;;-3.38;73.29;99856.05;107364;1274;97935;-69
2022/01/22 04:03:24;;;;;;;12.00;4.20;;;;;;;-3.38;73.38;99859.98;106003;1273;138262;-68
2022/01/22 04:06:09;;;;;;;13.30;4.20;;;;;;;-3.36;73.19;99863.23;106070;1274;112368;-69
2022/01/22 04:08:39;;;;;;;7.90;3.90;;;;;;;-3.37;73.16;99862.02;105849;1274;138834;-67
2022/01/22 04:11:13;;;;;;;11.30;4.40;;;;;;;-3.37;73.33;99855.74;106175;1274;108761;-67
2022/01/22 04:13:44;;;;;;;10.30;4.30;;;;;;;-3.36;73.26;99859.66;105893;1273;139094;-68
2022/01/22 04:16:14;;;;;;;9.80;4.00;;;;;;;-3.37;72.98;99860.66;106125;1274;97946;-68
2022/01/22 04:27:10;;;;;;;11.70;4.40;;;;;;;-3.40;73.01;99871.52;105982;1272;124784;-68
2022/01/22 04:29:39;;;;;;;8.80;3.80;;;;;;;-3.42;73.17;99871.78;107682;1273;96173;-68
2022/01/22 04:32:09;;;;;;;9.40;4.20;;;;;;;-3.44;72.82;99873.78;106499;1271;138125;-68
2022/01/22 04:34:37;;;;;;;7.30;3.80;;;;;;;-3.45;72.99;99882.77;106763;1273;108848;-68
2022/01/22 04:37:07;;;;;;;11.90;3.90;;;;;;;-3.46;73.29;99885.66;106187;1273;109180;-68
2022/01/22 04:39:37;;;;;;;9.90;4.20;;;;;;;-3.45;73.09;99885.98;105964;1273;138289;-67
2022/01/22 04:42:09;;;;;;;7.50;3.90;;;;;;;-3.46;73.06;99893.98;105993;1273;97884;-68
2022/01/22 04:44:45;;;;;;;9.40;4.30;;;;;;;-3.46;73.24;99897.38;106266;1273;138218;-68
2022/01/22 04:47:20;;;;;;;;;;;;;;;-3.45;73.28;99906.39;106113;1273;108291;-69
2022/01/22 04:52:41;;;;;;;10.90;3.90;;;;;;;-3.44;73.18;99910.15;105971;1274;97888;-67
2022/01/22 04:55:11;;;;;;;11.20;3.80;;;;;;;-3.45;73.28;99913.20;107490;1274;136964;-68
2022/01/22 04:57:43;;;;;;;8.30;3.80;;;;;;;-3.44;73.32;99917.80;106516;1273;139248;-68
2022/01/22 05:00:16;;;;;;;11.00;3.90;;;;;;;-3.43;73.16;99924.63;105941;1274;110379;-70
2022/01/22 05:03:23;;;;;;;9.00;4.10;;;;;;;-3.39;73.23;99923.37;106895;1279;139788;-68
2022/01/22 05:06:10;;;;;;;11.20;4.00;;;;;;;-3.35;73.49;99922.23;105781;1278;98056;-68
2022/01/22 05:08:52;;;;;;;11.40;3.70;;;;;;;-3.33;73.00;99915.64;105876;1273;139280;-68
2022/01/22 05:11:24;;;;;;;9.80;4.00;;;;;;;-3.30;72.82;99919.77;106110;1274;112655;-67
2022/01/22 05:13:54;;;;;;;10.30;3.90;;;;;;;-3.27;73.34;99916.58;105977;1274;139178;-68
2022/01/22 05:16:22;;;;;;;8.90;3.70;;;;;;;-3.25;73.22;99915.94;106159;1273;109172;-66
2022/01/22 05:18:56;;;;;;;8.10;3.90;;;;;;;-3.25;73.19;99910.33;106062;1274;97837;-68
2022/01/22 05:21:27;;;;;;;8.60;3.60;;;;;;;-3.24;73.02;99916.98;107581;1272;140415;-68
2022/01/22 05:24:00;;;;;;;11.20;4.00;;;;;;;-3.23;73.00;99922.80;107547;1273;113532;-68
2022/01/22 05:29:55;;;;;;;10.40;3.70;;;;;;;-3.18;73.16;99931.23;106082;1278;106473;-68
2022/01/22 05:32:55;;;;;;;9.10;3.50;;;;;;;-3.13;72.81;99930.80;106230;1276;139199;-68
2022/01/22 05:38:38;;;;;;;9.80;4.20;;;;;;;-3.02;72.99;99930.98;107259;1276;138819;-68
2022/01/22 05:41:07;;;;;;;9.00;3.40;;;;;;;-3.00;72.95;99934.60;107201;1276;110039;-69
2022/01/22 05:43:35;;;;;;;10.70;3.60;;;;;;;-2.96;72.97;99933.46;105883;1276;139699;-68
2022/01/22 05:46:04;;;;;;;7.60;3.30;;;;;;;-2.92;72.78;99940.84;105969;1276;97825;-68
2022/01/22 05:48:33;;;;;;;9.00;3.40;;;;;;;-2.89;73.03;99944.30;107378;1276;95872;-68
2022/01/22 05:51:03;;;;;;;8.80;3.80;;;;;;;-2.86;72.70;99950.49;106278;1276;138508;-68
2022/01/22 05:53:44;;;;;;;9.60;3.10;;;;;;;-2.82;72.82;99951.58;105826;1276;108238;-68
2022/01/22 06:01:47;;;;;;;12.10;3.80;;;;;;;-2.72;72.72;99971.13;105804;1276;139381;-68
2022/01/22 06:04:20;;;;;;;10.80;3.40;;;;;;;-2.70;72.51;99975.92;105974;1276;112862;-67
2022/01/22 06:06:52;;;;;;;8.80;3.20;;;;;;;-2.69;72.46;99977.84;105988;1273;108087;-68
2022/01/22 06:09:21;;;;;;;7.30;3.20;;;;;;;-2.66;72.32;99977.38;105946;1273;138662;-68
2022/01/22 06:11:56;;;;;;;7.30;3.20;;;;;;;-2.63;72.63;99978.44;106024;1273;97968;-68
2022/01/22 06:14:37;;;;;;;8.50;2.90;;;;;;;-2.62;72.64;99976.27;106004;1272;138156;-68
2022/01/22 06:17:06;;;;;;;9.70;3.30;;;;;;;-2.61;72.33;99982.05;106116;1273;112133;-67
2022/01/22 06:19:44;;;;;;;11.50;3.30;;;;;;;-2.61;72.59;99988.17;106047;1273;138724;-68
2022/01/22 06:22:13;;;;;;;8.70;2.70;;;;;;;-2.59;72.51;99998.24;106039;1273;109038;-67
2022/01/22 06:24:41;;;;;;;9.20;3.10;;;;;;;-2.57;72.66;100001.34;106128;1273;97872;-68
2022/01/22 06:27:11;;;;;;;10.30;2.80;;;;;;;-2.55;72.41;100005.79;105976;1272;138656;-68
2022/01/22 06:29:40;;;;;;;6.90;2.70;;;;;;;-2.52;72.64;100005.69;106081;1273;111367;-68
2022/01/22 06:32:10;;;;;;;7.50;2.70;;;;;;;-2.49;72.23;100002.68;105976;1274;138912;-68
2022/01/22 06:34:39;;;;;;;9.40;3.00;;;;;;;-2.47;72.19;99996.41;106029;1273;108937;-67
2022/01/22 06:37:08;;;;;;;10.70;3.10;;;;;;;-2.46;72.09;99998.46;106043;1273;98098;-68
2022/01/22 06:41:43;;;;;;;8.20;2.70;;;;;;;-2.44;72.18;100001.73;106001;1273;138811;-68
2022/01/22 06:43:28;;;;;;;6.60;2.90;;;;;;;-2.41;71.97;100016.41;107152;1271;140632;-67
2022/01/22 06:46:10;;;;;;;15.40;3.10;;;;;;;-2.39;72.13;100021.38;106302;1273;109024;-69
2022/01/22 06:48:46;;;;;;;10.60;3.30;;;;;;;-2.37;72.19;100026.35;106137;1271;109032;-69
2022/01/22 06:51:27;;;;;;;8.90;3.60;;;;;;;-2.37;72.22;100028.23;106065;1271;138797;-68
2022/01/22 06:53:56;;;;;;;6.40;2.60;;;;;;;-2.36;72.25;100038.63;106227;1273;97915;-66
2022/01/22 06:56:25;;;;;;;7.80;2.90;;;;;;;-2.32;72.50;100031.90;105980;1273;138426;-68
2022/01/22 06:59:16;;;;;;;7.20;3.30;;;;;;;-2.27;72.21;100029.08;106126;1273;108953;-69
2022/01/22 07:01:48;;;;;;;6.70;2.90;;;;;;;-2.25;72.22;100035.74;105859;1273;138982;-67
2022/01/22 07:04:21;;;;;;;8.30;3.20;;;;;;;-2.24;72.37;100039.85;107552;1273;95930;-68
2022/01/22 07:07:09;;;;;;;7.40;2.90;;;;;;;-2.19;72.32;100039.58;107341;1272;95693;-68
2022/01/22 07:09:38;;;;;;;11.70;3.60;;;;;;;-2.17;72.22;100046.94;106834;1273;139526;-68
2022/01/22 07:12:12;;;;;;;7.90;3.10;;;;;;;-2.13;72.21;100048.22;106037;1274;109007;-68
2022/01/22 07:14:41;;;;;;;9.00;3.10;;;;;;;-2.10;72.46;100052.35;107384;1273;140335;-69
2022/01/22 07:17:11;;;;;;;8.40;3.10;;;;;;;-2.04;72.34;100053.27;107573;1272;95882;-69
2022/01/22 07:19:45;;;;;;;6.20;2.80;;;;;;;-2.01;72.10;100059.80;107453;1273;138784;-68
2022/01/22 07:22:40;;;;;;;6.70;2.90;;;;;;;-1.98;72.11;100058.82;107623;1271;112690;-69
2022/01/22 07:25:28;;;;;;;6.60;3.10;;;;;;;-1.95;72.21;100060.25;107562;1271;138547;-69
2022/01/22 07:27:59;;;;;;;9.10;3.30;;;;;;;-1.89;72.08;100063.05;107548;1273;108247;-69
2022/01/22 07:30:28;;;;;;;9.80;3.60;;;;;;;-1.86;72.12;100060.38;107408;1272;96118;-67
2022/01/22 07:32:57;;;;;;;8.00;3.30;;;;;;;-1.84;71.88;100064.15;106745;1273;138487;-69
2022/01/22 07:35:26;;;;;;;8.30;3.20;;;;;;;-1.81;72.07;100073.22;106175;1273;113864;-68
2022/01/22 07:38:04;;;;;;;8.10;3.40;;;;;;;-1.77;72.16;100079.61;105971;1273;138775;-69
2022/01/22 07:40:32;;;;;;;9.10;3.30;;;;;;;-1.73;71.89;100082.55;106179;1271;108883;-68
2022/01/22 07:43:07;;;;;;;8.00;3.60;;;;;;;-1.69;72.39;100089.41;106174;1273;98220;-67
2022/01/22 07:46:09;;;;;;;8.70;3.40;;;;;;;-1.68;72.33;100097.45;105979;1273;97920;-68
2022/01/22 07:48:49;;;;;;;17.30;6.00;;;;;;;-1.68;72.39;100107.67;106157;1273;111333;-68
2022/01/22 07:51:39;;;;;;;13.50;3.80;;;;;;;-1.67;72.59;100120.30;107173;1272;138756;-68
2022/01/22 07:54:08;;;;;;;10.50;3.40;;;;;;;-1.63;72.65;100129.91;106591;1273;108872;-68
2022/01/22 07:56:37;;;;;;;9.00;3.00;;;;;;;-1.58;72.90;100136.48;106087;1273;138928;-68
2022/01/22 07:59:06;;;;;;;9.90;3.90;;;;;;;-1.52;72.82;100135.71;106106;1273;97923;-68
2022/01/22 08:01:38;;;;;;;10.90;4.40;;;;;;;-1.50;72.72;100138.45;106034;1273;112857;-68
2022/01/22 08:04:24;;;;;;;10.80;4.10;;;;;;;-1.54;73.02;100139.60;106105;1272;139090;-69
2022/01/22 08:07:12;;;;;;;11.00;4.40;;;;;;;-1.57;73.07;100145.20;106128;1273;108936;-68
2022/01/22 08:09:45;;;;;;;12.30;4.80;;;;;;;-1.58;73.27;100140.91;107048;1271;139746;-68
2022/01/22 08:12:20;;;;;;;16.30;4.20;;;;;;;-1.54;73.34;100148.13;106272;1273;97944;-68
2022/01/22 08:14:50;;;;;;;14.10;4.30;;;;;;;-1.50;73.18;100150.40;105918;1273;138524;-69
2022/01/22 08:17:18;;;;;;;10.30;4.30;;;;;;;-1.48;73.31;100151.96;105875;1273;108965;-69
2022/01/22 08:19:47;;;;;;;11.40;4.90;;;;;;;-1.46;73.13;100160.69;106009;1273;109071;-70
2022/01/22 08:22:34;;;;;;;10.20;3.70;;;;;;;-1.42;73.29;100165.55;105955;1271;138539;-69
2022/01/22 08:25:33;;;;;;;10.30;4.10;;;;;;;-1.39;73.37;100170.70;105978;1273;97862;-68
2022/01/22 08:31:15;;;;;;;10.70;3.60;;;;;;;-1.39;73.65;100180.24;106078;1273;108843;-68
2022/01/22 08:36:31;;;;;;;11.20;4.10;;;;;;;-1.18;73.28;100199.49;106122;1273;98057;-68
2022/01/22 08:39:00;;;;;;;11.70;4.40;;;;;;;-0.97;73.54;100206.77;105983;1273;138863;-68
2022/01/22 08:41:29;;;;;;;13.00;4.40;;;;;;;-0.72;73.36;100216.15;106120;1273;112626;-67
2022/01/22 08:43:59;;;;;;;8.90;4.20;;;;;;;-0.56;72.84;100222.66;106158;1273;109011;-67
2022/01/22 08:46:28;;;;;;;11.60;4.70;;;;;;;-0.46;72.84;100230.31;106698;1273;138932;-66
2022/01/22 08:48:57;;;;;;;7.20;3.90;;;;;;;-0.37;72.68;100235.02;106061;1273;97880;-67
2022/01/22 08:51:28;;;;;;;12.50;5.10;;;;;;;-0.35;72.34;100230.63;105868;1273;137598;-67
2022/01/22 08:54:00;;;;;;;11.30;4.80;;;;;;;-0.34;72.39;100235.77;106489;1273;109365;-67
2022/01/22 08:56:29;;;;;;;9.60;4.80;;;;;;;-0.27;72.11;100225.41;107560;1273;140012;-68
2022/01/22 08:58:59;;;;;;;12.20;4.80;;;;;;;-0.22;72.05;100233.32;107458;1273;109113;-68
2022/01/22 09:01:34;;;;;;;11.50;4.50;;;;;;;-0.06;72.19;100235.21;107475;1273;96986;-67
2022/01/22 09:04:09;;;;;;;11.30;5.00;;;;;;;0.22;72.16;100238.23;107350;1273;141914;-68
2022/01/22 09:07:01;;;;;;;10.40;5.00;;;;;;;0.58;71.78;100245.89;107567;1272;112391;-68
2022/01/22 09:09:37;;;;;;;10.80;5.20;;;;;;;0.82;71.13;100251.55;107458;1272;137915;-67
2022/01/22 09:12:26;;;;;;;11.70;5.30;;;;;;;1.05;70.97;100257.71;107522;1272;109118;-68
2022/01/22 09:14:56;;;;;;;12.60;5.20;;;;;;;1.15;70.13;100266.17;106185;1272;139074;-70
2022/01/22 09:17:25;;;;;;;14.40;5.20;;;;;;;1.22;69.65;100273.73;105984;1272;98154;-71
2022/01/22 09:19:58;;;;;;;12.20;4.90;;;;;;;1.33;69.71;100279.13;106043;1273;111659;-68
2022/01/22 09:22:26;;;;;;;9.50;4.70;;;;;;;1.43;69.19;100277.81;106317;1272;138062;-68
2022/01/22 09:24:56;;;;;;;10.10;4.90;;;;;;;1.46;68.94;100279.38;106160;1273;108587;-68
2022/01/22 09:27:26;;;;;;;12.90;5.20;;;;;;;1.57;69.00;100276.33;105732;1273;138028;-67
2022/01/22 09:29:55;;;;;;;10.60;4.90;;;;;;;1.87;69.29;100280.40;105988;1273;100012;-70
2022/01/22 09:32:25;;;;;;;10.70;4.80;;;;;;;2.37;68.69;100277.95;105810;1273;138113;-69
2022/01/22 09:35:18;;;;;;;10.40;4.20;;;;;;;2.64;68.18;100282.45;105835;1273;107467;-69
2022/01/22 09:38:07;;;;;;;8.30;4.60;;;;;;;2.96;66.90;100280.90;106078;1273;108326;-69
2022/01/22 09:40:47;;;;;;;9.60;4.00;;;;;;;2.99;66.37;100277.29;106316;1273;138957;-68
2022/01/22 09:43:29;;;;;;;7.30;3.40;;;;;;;2.95;65.92;100272.48;105915;1273;97927;-67
2022/01/22 09:46:19;;;;;;;9.50;3.60;;;;;;;2.78;63.65;100279.38;106018;1273;137347;-68
2022/01/22 09:48:55;;;;;;;;;;;;;;;2.71;63.56;100287.78;106166;1273;109075;-68
2022/01/22 09:51:35;;;;;;;5.50;2.80;;;;;;;2.55;63.35;100293.78;105976;1273;124131;-67
2022/01/22 09:54:24;;;;;;;6.10;3.10;;;;;;;2.26;62.13;100305.90;105998;1273;97893;-68
2022/01/22 09:57:03;;;;;;;5.80;3.50;;;;;;;1.98;61.99;100317.14;105915;1272;138820;-67
2022/01/22 09:59:50;;;;;;;8.10;4.30;;;;;;;1.64;61.96;100325.21;106132;1272;112742;-69
2022/01/22 10:02:42;;;;;;;8.60;4.00;;;;;;;1.39;62.73;100332.61;105842;1273;139265;-69
2022/01/22 10:05:34;;;;;;;7.20;3.60;;;;;;;1.30;63.41;100340.61;105781;1273;110466;-69
2022/01/22 10:08:27;;;;;;;8.90;3.70;;;;;;;1.30;63.55;100350.54;106099;1273;97844;-68
2022/01/22 10:11:19;;;;;;;6.90;3.20;;;;;;;1.37;63.29;100354.00;106016;1273;98044;-68
2022/01/22 10:14:11;;;;;;;5.80;2.90;;;;;;;1.53;62.69;100351.20;106060;1271;112456;-68
2022/01/22 10:16:41;;;;;;;6.60;2.60;;;;;;;1.66;62.61;100357.45;105882;1273;138486;-68
2022/01/22 10:19:13;;;;;;;6.60;3.30;;;;;;;1.81;62.90;100364.73;106081;1272;108982;-68
2022/01/22 10:21:43;;;;;;;4.90;2.50;;;;;;;1.87;62.21;100366.65;106040;1273;137507;-72
2022/01/22 10:24:27;;;;;;;3.90;2.30;;;;;;;1.88;61.83;100375.73;106097;1273;97894;-70
2022/01/22 10:27:31;;;;;;;6.70;2.30;;;;;;;1.94;61.65;100377.98;106072;1273;137666;-72
2022/01/22 10:30:03;;;;;;;6.60;2.60;;;;;;;2.10;61.74;100376.52;106094;1273;109134;-73
2022/01/22 10:32:43;;;;;;;4.50;2.50;;;;;;;2.63;62.77;100377.05;106029;1273;108912;-72
2022/01/22 10:35:31;;;;;;;12.40;3.00;;;;;;;3.36;62.11;100383.61;106061;1272;137414;-73
2022/01/22 10:38:40;;;;;;;4.70;2.60;;;;;;;3.68;61.56;100386.50;106043;1273;97829;-72
2022/01/22 10:41:09;;;;;;;5.80;2.80;;;;;;;3.75;60.52;100386.98;105976;1273;137266;-74
2022/01/22 10:43:43;;;;;;;6.60;2.60;;;;;;;3.57;58.48;100395.28;105916;1273;108519;-75
2022/01/22 10:46:19;;;;;;;4.60;3.10;;;;;;;3.30;59.16;100408.20;106578;1272;137748;-74
2022/01/22 10:48:56;;;;;;;5.50;2.80;;;;;;;3.13;59.04;100410.09;106218;1273;97835;-74
2022/01/22 10:51:26;;;;;;;8.10;3.70;;;;;;;3.20;60.45;100407.67;106004;1273;138203;-72
2022/01/22 10:53:58;;;;;;;6.60;3.30;;;;;;;3.54;60.17;100418.50;105972;1273;112647;-72
2022/01/22 10:56:28;;;;;;;7.00;4.00;;;;;;;3.86;60.62;100410.38;105978;1273;109008;-72
2022/01/22 10:59:03;;;;;;;7.60;3.60;;;;;;;4.23;59.71;100407.33;105975;1273;137494;-70
2022/01/22 11:01:46;;;;;;;5.50;3.60;;;;;;;4.41;59.24;100413.80;105980;1273;97944;-75
2022/01/22 11:04:17;;;;;;;7.70;2.70;;;;;;;4.72;57.54;100417.77;105902;1273;137404;-75
2022/01/22 11:06:52;;;;;;;4.40;3.00;;;;;;;4.77;56.59;100420.85;106118;1272;111663;-75
2022/01/22 11:09:41;;;;;;;5.20;2.70;;;;;;;4.90;56.17;100422.83;107643;1272;137756;-74
2022/01/22 11:12:11;;;;;;;3.60;2.50;;;;;;;5.06;54.43;100423.26;106247;1273;108866;-76
2022/01/22 11:14:41;;;;;;;3.70;2.70;;;;;;;5.16;54.67;100425.58;105986;1273;97964;-73
2022/01/22 11:17:11;;;;;;;6.00;2.80;;;;;;;5.10;54.73;100435.46;105941;1272;138118;-74
2022/01/22 11:19:43;;;;;;;4.30;3.00;;;;;;;5.19;54.73;100440.39;106191;1273;112441;-76
2022/01/22 11:22:14;;;;;;;6.90;3.00;;;;;;;5.34;53.83;100440.79;106016;1273;139654;-74
2022/01/22 11:24:45;;;;;;;5.40;2.30;;;;;;;5.40;52.94;100435.41;105950;1273;106908;-74
2022/01/22 11:27:16;;;;;;;4.30;2.40;;;;;;;5.31;51.74;100441.16;105937;1273;138893;-73
2022/01/22 11:29:49;;;;;;;4.50;2.40;;;;;;;5.30;52.41;100449.96;106192;1273;97813;-75
2022/01/22 11:32:20;;;;;;;4.40;2.40;;;;;;;5.42;53.24;100451.94;106158;1273;112970;-75
2022/01/22 11:34:53;;;;;;;4.00;2.40;;;;;;;5.61;52.87;100456.79;106017;1273;137832;-75
2022/01/22 11:37:28;;;;;;;3.70;2.50;;;;;;;5.75;51.76;100458.57;106096;1273;109643;-76
2022/01/22 11:40:12;;;;;;;4.20;2.40;;;;;;;5.70;50.46;100459.98;105923;1273;137599;-72
2022/01/22 11:42:59;;;;;;;6.60;3.20;;;;;;;5.44;49.67;100464.69;106083;1272;97722;-73
2022/01/22 11:45:31;;;;;;;6.40;2.90;;;;;;;5.33;51.06;100466.84;105869;1273;138305;-73
2022/01/22 11:48:27;;;;;;;4.90;2.80;;;;;;;5.28;50.91;100468.25;106092;1273;107904;-73
2022/01/22 11:51:17;;;;;;;4.30;2.50;;;;;;;5.28;51.62;100465.85;105429;1276;107867;-74
2022/01/22 11:53:55;;;;;;;5.90;3.50;;;;;;;5.32;51.72;100464.60;105514;1276;137450;-75
2022/01/22 11:56:26;;;;;;;6.70;3.20;;;;;;;5.35;50.93;100469.22;105555;1276;96468;-71
2022/01/22 11:59:16;;;;;;;5.20;3.20;;;;;;;5.37;50.84;100475.59;105554;1276;138489;-72
2022/01/22 12:02:06;;;;;;;4.40;2.70;;;;;;;5.29;50.28;100467.38;105796;1277;108885;-73
2022/01/22 12:05:00;;;;;;;3.90;2.70;;;;;;;5.12;49.77;100472.16;106238;1277;138386;-73
2022/01/22 12:07:35;;;;;;;6.10;3.50;;;;;;;5.01;50.73;100487.21;105601;1277;97931;-73
2022/01/22 12:16:13;;;;;;;7.40;3.50;;;;;;;5.08;50.79;100504.41;105633;1277;137888;-76
2022/01/22 12:18:50;;;;;;;4.60;2.80;;;;;;;5.13;51.19;100506.62;105767;1278;109447;-69
2022/01/22 12:21:37;;;;;;;5.30;2.80;;;;;;;5.22;50.74;100508.13;107153;1277;97175;-77
2022/01/22 12:24:12;;;;;;;7.20;3.60;;;;;;;5.14;50.56;100508.33;107267;1276;95915;-75
2022/01/22 12:26:52;;;;;;;8.30;3.00;;;;;;;5.04;50.59;100517.02;107345;1273;112660;-80
2022/01/22 12:29:44;;;;;;;4.30;3.00;;;;;;;4.97;50.40;100525.31;107504;1273;139359;-78
2022/01/22 12:32:36;;;;;;;6.20;2.90;;;;;;;5.00;50.38;100523.05;107683;1270;107046;-81
2022/01/22 12:35:10;;;;;;;5.60;2.80;;;;;;;4.96;49.73;100522.40;106999;1273;138408;-80
2022/01/22 12:38:01;;;;;;;4.50;2.90;;;;;;;4.85;49.77;100532.61;106517;1273;97860;-80
2022/01/22 12:40:33;;;;;;;6.30;3.30;;;;;;;4.87;50.50;100538.98;105972;1273;140917;-78
2022/01/22 12:43:08;;;;;;;4.50;2.90;;;;;;;4.89;49.30;100531.05;106864;1272;109133;-74
2022/01/22 12:45:40;;;;;;;4.90;2.80;;;;;;;4.77;49.44;100535.57;106036;1273;107950;-79
2022/01/22 12:48:13;;;;;;;5.80;3.20;;;;;;;4.77;50.06;100533.33;105973;1273;139257;-77
2022/01/22 12:50:42;;;;;;;4.30;2.90;;;;;;;4.81;49.54;100534.52;107707;1271;96164;-80
2022/01/22 12:53:16;;;;;;;4.40;2.80;;;;;;;4.81;49.17;100539.17;106759;1270;137328;-80
2022/01/22 12:58:42;;;;;;;4.40;2.40;;;;;;;4.69;48.57;100549.05;105858;1273;137716;-80